sensor_id;sensor_type;location;lat;lon;timestamp;P1;durP1;ratioP1;P2;durP2;ratioP2
11141;SDS011;5625;50.122;19.864;2023-05-24T00:01:23;20.43;;;18.53;;
11141;SDS011;5625;50.122;19.864;2023-05-24T00:03:52;21.10;;;19.10;;
11141;SDS011;5625;50.122;19.864;2023-05-24T00:06:26;20.33;;;18.33;;
11141;SDS011;5625;50.122;19.864;2023-05-24T00:08:55;20.30;;;18.27;;
11141;SDS011;5625;50.122;19.864;2023-05-24T00:11:23;20.10;;;18.20;;
11141;SDS011;5625;50.122;19.864;2023-05-24T00:13:52;19.93;;;18.07;;
11141;SDS011;5625;50.122;19.864;2023-05-24T00:16:20;19.60;;;17.80;;
11141;SDS011;5625;50.122;19.864;2023-05-24T00:18:49;19.40;;;17.70;;
11141;SDS011;5625;50.122;19.864;2023-05-24T00:21:17;19.77;;;17.77;;
11141;SDS011;5625;50.122;19.864;2023-05-24T00:23:45;19.17;;;17.27;;
11141;SDS011;5625;50.122;19.864;2023-05-24T00:26:14;20.57;;;18.57;;
11141;SDS011;5625;50.122;19.864;2023-05-24T00:28:42;20.27;;;18.27;;
11141;SDS011;5625;50.122;19.864;2023-05-24T00:31:11;20.17;;;18.13;;
11141;SDS011;5625;50.122;19.864;2023-05-24T00:33:39;20.73;;;18.67;;
11141;SDS011;5625;50.122;19.864;2023-05-24T00:36:07;21.27;;;19.17;;
11141;SDS011;5625;50.122;19.864;2023-05-24T00:38:35;20.33;;;18.23;;
11141;SDS011;5625;50.122;19.864;2023-05-24T00:41:03;20.10;;;18.10;;
11141;SDS011;5625;50.122;19.864;2023-05-24T00:43:32;21.50;;;19.27;;
11141;SDS011;5625;50.122;19.864;2023-05-24T00:46:10;20.33;;;18.43;;
11141;SDS011;5625;50.122;19.864;2023-05-24T00:48:41;20.83;;;18.73;;
11141;SDS011;5625;50.122;19.864;2023-05-24T00:51:10;21.73;;;19.57;;
11141;SDS011;5625;50.122;19.864;2023-05-24T00:53:39;21.90;;;19.80;;
11141;SDS011;5625;50.122;19.864;2023-05-24T00:56:09;22.10;;;19.80;;
11141;SDS011;5625;50.122;19.864;2023-05-24T00:58:41;21.00;;;18.90;;
11141;SDS011;5625;50.122;19.864;2023-05-24T01:01:09;22.07;;;19.97;;
11141;SDS011;5625;50.122;19.864;2023-05-24T01:03:38;21.83;;;19.73;;
11141;SDS011;5625;50.122;19.864;2023-05-24T01:06:07;24.27;;;21.87;;
11141;SDS011;5625;50.122;19.864;2023-05-24T01:08:44;23.40;;;20.90;;
11141;SDS011;5625;50.122;19.864;2023-05-24T01:11:34;24.57;;;22.27;;
11141;SDS011;5625;50.122;19.864;2023-05-24T01:14:16;22.73;;;20.53;;
11141;SDS011;5625;50.122;19.864;2023-05-24T01:16:49;24.77;;;22.37;;
11141;SDS011;5625;50.122;19.864;2023-05-24T01:22:17;23.70;;;21.30;;
11141;SDS011;5625;50.122;19.864;2023-05-24T01:25:01;22.30;;;20.20;;
11141;SDS011;5625;50.122;19.864;2023-05-24T01:27:32;22.80;;;20.50;;
11141;SDS011;5625;50.122;19.864;2023-05-24T01:30:02;22.73;;;20.63;;
11141;SDS011;5625;50.122;19.864;2023-05-24T01:32:31;22.40;;;20.17;;
11141;SDS011;5625;50.122;19.864;2023-05-24T01:34:59;21.50;;;19.33;;
11141;SDS011;5625;50.122;19.864;2023-05-24T01:37:27;20.77;;;18.77;;
11141;SDS011;5625;50.122;19.864;2023-05-24T01:39:55;21.70;;;19.50;;
11141;SDS011;5625;50.122;19.864;2023-05-24T01:42:25;21.37;;;19.07;;
11141;SDS011;5625;50.122;19.864;2023-05-24T01:45:00;21.57;;;19.53;;
11141;SDS011;5625;50.122;19.864;2023-05-24T01:47:35;20.97;;;18.97;;
11141;SDS011;5625;50.122;19.864;2023-05-24T01:50:13;19.50;;;17.70;;
11141;SDS011;5625;50.122;19.864;2023-05-24T01:52:48;20.57;;;18.63;;
11141;SDS011;5625;50.122;19.864;2023-05-24T01:55:18;21.20;;;19.30;;
11141;SDS011;5625;50.122;19.864;2023-05-24T01:57:48;20.03;;;18.13;;
11141;SDS011;5625;50.122;19.864;2023-05-24T02:00:19;20.07;;;18.23;;
11141;SDS011;5625;50.122;19.864;2023-05-24T02:02:48;21.37;;;19.20;;
11141;SDS011;5625;50.122;19.864;2023-05-24T02:05:17;21.13;;;19.13;;
11141;SDS011;5625;50.122;19.864;2023-05-24T02:07:45;20.47;;;18.40;;
11141;SDS011;5625;50.122;19.864;2023-05-24T02:10:13;20.33;;;18.40;;
11141;SDS011;5625;50.122;19.864;2023-05-24T02:12:41;21.70;;;19.57;;
11141;SDS011;5625;50.122;19.864;2023-05-24T02:15:10;21.13;;;19.03;;
11141;SDS011;5625;50.122;19.864;2023-05-24T02:17:41;20.70;;;18.70;;
11141;SDS011;5625;50.122;19.864;2023-05-24T02:20:11;20.03;;;18.23;;
11141;SDS011;5625;50.122;19.864;2023-05-24T02:22:39;21.37;;;19.20;;
11141;SDS011;5625;50.122;19.864;2023-05-24T02:25:07;20.23;;;18.33;;
11141;SDS011;5625;50.122;19.864;2023-05-24T02:27:36;20.23;;;18.20;;
11141;SDS011;5625;50.122;19.864;2023-05-24T02:30:04;20.60;;;18.60;;
11141;SDS011;5625;50.122;19.864;2023-05-24T02:32:33;21.00;;;19.03;;
11141;SDS011;5625;50.122;19.864;2023-05-24T02:35:03;21.60;;;19.73;;
11141;SDS011;5625;50.122;19.864;2023-05-24T02:37:32;20.93;;;18.93;;
11141;SDS011;5625;50.122;19.864;2023-05-24T02:40:01;21.53;;;19.53;;
11141;SDS011;5625;50.122;19.864;2023-05-24T02:42:33;22.00;;;19.80;;
11141;SDS011;5625;50.122;19.864;2023-05-24T02:45:01;22.87;;;20.70;;
11141;SDS011;5625;50.122;19.864;2023-05-24T02:47:29;22.97;;;20.67;;
11141;SDS011;5625;50.122;19.864;2023-05-24T02:49:57;21.53;;;19.50;;
11141;SDS011;5625;50.122;19.864;2023-05-24T02:52:26;22.67;;;20.57;;
11141;SDS011;5625;50.122;19.864;2023-05-24T02:54:55;22.97;;;20.77;;
11141;SDS011;5625;50.122;19.864;2023-05-24T02:57:25;23.00;;;20.93;;
11141;SDS011;5625;50.122;19.864;2023-05-24T02:59:53;24.07;;;21.70;;
11141;SDS011;5625;50.122;19.864;2023-05-24T03:02:22;24.57;;;22.07;;
11141;SDS011;5625;50.122;19.864;2023-05-24T03:04:50;23.90;;;21.53;;
11141;SDS011;5625;50.122;19.864;2023-05-24T03:07:20;22.53;;;20.33;;
11141;SDS011;5625;50.122;19.864;2023-05-24T03:09:50;23.83;;;21.57;;
11141;SDS011;5625;50.122;19.864;2023-05-24T03:12:18;23.57;;;21.17;;
11141;SDS011;5625;50.122;19.864;2023-05-24T03:14:46;23.90;;;21.43;;
11141;SDS011;5625;50.122;19.864;2023-05-24T03:17:14;24.60;;;22.20;;
11141;SDS011;5625;50.122;19.864;2023-05-24T03:19:42;23.73;;;21.50;;
11141;SDS011;5625;50.122;19.864;2023-05-24T03:22:10;25.33;;;23.03;;
11141;SDS011;5625;50.122;19.864;2023-05-24T03:24:38;24.37;;;21.93;;
11141;SDS011;5625;50.122;19.864;2023-05-24T03:27:08;25.67;;;23.00;;
11141;SDS011;5625;50.122;19.864;2023-05-24T03:29:36;25.17;;;22.87;;
11141;SDS011;5625;50.122;19.864;2023-05-24T03:32:04;25.90;;;23.30;;
11141;SDS011;5625;50.122;19.864;2023-05-24T03:34:32;24.73;;;22.33;;
11141;SDS011;5625;50.122;19.864;2023-05-24T03:37:00;25.17;;;22.57;;
11141;SDS011;5625;50.122;19.864;2023-05-24T03:39:28;24.23;;;21.70;;
11141;SDS011;5625;50.122;19.864;2023-05-24T03:41:59;22.13;;;20.03;;
11141;SDS011;5625;50.122;19.864;2023-05-24T03:44:29;24.33;;;21.87;;
11141;SDS011;5625;50.122;19.864;2023-05-24T03:46:57;22.70;;;20.33;;
11141;SDS011;5625;50.122;19.864;2023-05-24T03:49:25;22.33;;;20.17;;
11141;SDS011;5625;50.122;19.864;2023-05-24T03:51:53;22.27;;;19.80;;
11141;SDS011;5625;50.122;19.864;2023-05-24T03:54:21;21.83;;;19.77;;
11141;SDS011;5625;50.122;19.864;2023-05-24T03:56:49;22.57;;;20.50;;
11141;SDS011;5625;50.122;19.864;2023-05-24T03:59:18;23.13;;;20.83;;
11141;SDS011;5625;50.122;19.864;2023-05-24T04:01:48;20.33;;;18.37;;
11141;SDS011;5625;50.122;19.864;2023-05-24T04:04:16;22.17;;;20.07;;
11141;SDS011;5625;50.122;19.864;2023-05-24T04:06:44;22.73;;;20.53;;
11141;SDS011;5625;50.122;19.864;2023-05-24T04:09:13;21.37;;;19.23;;
11141;SDS011;5625;50.122;19.864;2023-05-24T04:11:41;22.90;;;20.60;;
11141;SDS011;5625;50.122;19.864;2023-05-24T04:14:09;21.73;;;19.47;;
11141;SDS011;5625;50.122;19.864;2023-05-24T04:16:37;21.87;;;19.93;;
11141;SDS011;5625;50.122;19.864;2023-05-24T04:19:08;22.00;;;19.87;;
11141;SDS011;5625;50.122;19.864;2023-05-24T04:21:36;23.60;;;21.27;;
11141;SDS011;5625;50.122;19.864;2023-05-24T04:24:04;24.03;;;21.70;;
11141;SDS011;5625;50.122;19.864;2023-05-24T04:26:33;23.23;;;21.00;;
11141;SDS011;5625;50.122;19.864;2023-05-24T04:29:03;25.20;;;22.70;;
11141;SDS011;5625;50.122;19.864;2023-05-24T04:31:32;25.87;;;23.17;;
11141;SDS011;5625;50.122;19.864;2023-05-24T04:34:01;25.07;;;22.07;;
11141;SDS011;5625;50.122;19.864;2023-05-24T04:36:31;26.80;;;24.07;;
11141;SDS011;5625;50.122;19.864;2023-05-24T04:39:00;26.00;;;23.40;;
11141;SDS011;5625;50.122;19.864;2023-05-24T04:41:30;25.90;;;23.40;;
11141;SDS011;5625;50.122;19.864;2023-05-24T04:44:00;27.20;;;24.40;;
11141;SDS011;5625;50.122;19.864;2023-05-24T04:46:28;25.10;;;22.57;;
11141;SDS011;5625;50.122;19.864;2023-05-24T04:48:56;25.37;;;22.87;;
11141;SDS011;5625;50.122;19.864;2023-05-24T04:51:26;24.60;;;22.20;;
11141;SDS011;5625;50.122;19.864;2023-05-24T04:53:55;23.13;;;20.90;;
11141;SDS011;5625;50.122;19.864;2023-05-24T04:56:24;23.93;;;21.20;;
11141;SDS011;5625;50.122;19.864;2023-05-24T04:58:52;21.40;;;19.20;;
11141;SDS011;5625;50.122;19.864;2023-05-24T05:01:20;23.33;;;21.03;;
11141;SDS011;5625;50.122;19.864;2023-05-24T05:03:48;20.43;;;18.43;;
11141;SDS011;5625;50.122;19.864;2023-05-24T05:06:16;21.77;;;19.47;;
11141;SDS011;5625;50.122;19.864;2023-05-24T05:08:44;20.10;;;17.87;;
11141;SDS011;5625;50.122;19.864;2023-05-24T05:11:14;19.57;;;17.67;;
11141;SDS011;5625;50.122;19.864;2023-05-24T05:13:43;19.63;;;17.70;;
11141;SDS011;5625;50.122;19.864;2023-05-24T05:16:11;19.37;;;17.57;;
11141;SDS011;5625;50.122;19.864;2023-05-24T05:18:40;18.30;;;16.40;;
11141;SDS011;5625;50.122;19.864;2023-05-24T05:21:08;19.67;;;17.67;;
11141;SDS011;5625;50.122;19.864;2023-05-24T05:23:38;19.10;;;17.17;;
11141;SDS011;5625;50.122;19.864;2023-05-24T05:26:06;19.30;;;17.40;;
11141;SDS011;5625;50.122;19.864;2023-05-24T05:28:38;18.47;;;16.67;;
11141;SDS011;5625;50.122;19.864;2023-05-24T05:31:06;17.87;;;16.07;;
11141;SDS011;5625;50.122;19.864;2023-05-24T05:33:34;18.73;;;16.77;;
11141;SDS011;5625;50.122;19.864;2023-05-24T05:36:02;18.20;;;16.50;;
11141;SDS011;5625;50.122;19.864;2023-05-24T05:38:31;18.70;;;16.77;;
11141;SDS011;5625;50.122;19.864;2023-05-24T05:40:59;17.50;;;15.70;;
11141;SDS011;5625;50.122;19.864;2023-05-24T05:43:27;18.07;;;16.27;;
11141;SDS011;5625;50.122;19.864;2023-05-24T05:45:57;19.67;;;17.67;;
11141;SDS011;5625;50.122;19.864;2023-05-24T05:48:26;18.03;;;16.23;;
11141;SDS011;5625;50.122;19.864;2023-05-24T05:50:56;17.77;;;16.07;;
11141;SDS011;5625;50.122;19.864;2023-05-24T05:53:24;16.30;;;14.80;;
11141;SDS011;5625;50.122;19.864;2023-05-24T05:55:52;16.97;;;15.47;;
11141;SDS011;5625;50.122;19.864;2023-05-24T05:58:20;17.77;;;15.97;;
11141;SDS011;5625;50.122;19.864;2023-05-24T06:00:48;18.00;;;16.20;;
11141;SDS011;5625;50.122;19.864;2023-05-24T06:03:17;16.80;;;15.00;;
11141;SDS011;5625;50.122;19.864;2023-05-24T06:05:46;17.43;;;15.20;;
11141;SDS011;5625;50.122;19.864;2023-05-24T06:08:14;18.30;;;16.47;;
11141;SDS011;5625;50.122;19.864;2023-05-24T06:10:42;19.10;;;17.17;;
11141;SDS011;5625;50.122;19.864;2023-05-24T06:13:10;17.60;;;15.80;;
11141;SDS011;5625;50.122;19.864;2023-05-24T06:15:39;17.47;;;15.87;;
11141;SDS011;5625;50.122;19.864;2023-05-24T06:18:07;18.27;;;16.47;;
11141;SDS011;5625;50.122;19.864;2023-05-24T06:20:36;18.40;;;16.27;;
11141;SDS011;5625;50.122;19.864;2023-05-24T06:23:05;19.20;;;17.30;;
11141;SDS011;5625;50.122;19.864;2023-05-24T06:25:33;18.00;;;16.30;;
11141;SDS011;5625;50.122;19.864;2023-05-24T06:28:01;18.13;;;16.33;;
11141;SDS011;5625;50.122;19.864;2023-05-24T06:30:32;19.83;;;15.53;;
11141;SDS011;5625;50.122;19.864;2023-05-24T06:33:00;17.73;;;16.10;;
11141;SDS011;5625;50.122;19.864;2023-05-24T06:35:28;17.00;;;15.50;;
11141;SDS011;5625;50.122;19.864;2023-05-24T06:38:00;16.93;;;15.33;;
11141;SDS011;5625;50.122;19.864;2023-05-24T06:40:28;18.80;;;16.90;;
11141;SDS011;5625;50.122;19.864;2023-05-24T06:42:59;17.23;;;15.63;;
11141;SDS011;5625;50.122;19.864;2023-05-24T06:45:27;16.20;;;14.77;;
11141;SDS011;5625;50.122;19.864;2023-05-24T06:47:55;17.57;;;15.87;;
11141;SDS011;5625;50.122;19.864;2023-05-24T06:50:26;17.10;;;15.33;;
11141;SDS011;5625;50.122;19.864;2023-05-24T06:52:54;16.67;;;14.97;;
11141;SDS011;5625;50.122;19.864;2023-05-24T06:55:23;17.60;;;15.87;;
11141;SDS011;5625;50.122;19.864;2023-05-24T06:57:52;17.10;;;15.37;;
11141;SDS011;5625;50.122;19.864;2023-05-24T07:00:20;16.23;;;14.60;;
11141;SDS011;5625;50.122;19.864;2023-05-24T07:02:48;17.10;;;15.50;;
11141;SDS011;5625;50.122;19.864;2023-05-24T07:05:16;16.00;;;14.30;;
11141;SDS011;5625;50.122;19.864;2023-05-24T07:07:47;16.47;;;14.80;;
11141;SDS011;5625;50.122;19.864;2023-05-24T07:10:15;16.60;;;14.90;;
11141;SDS011;5625;50.122;19.864;2023-05-24T07:12:47;16.00;;;14.33;;
11141;SDS011;5625;50.122;19.864;2023-05-24T07:15:15;16.10;;;14.63;;
11141;SDS011;5625;50.122;19.864;2023-05-24T07:17:43;16.30;;;14.80;;
11141;SDS011;5625;50.122;19.864;2023-05-24T07:20:11;17.00;;;15.30;;
11141;SDS011;5625;50.122;19.864;2023-05-24T07:22:40;15.53;;;14.20;;
11141;SDS011;5625;50.122;19.864;2023-05-24T07:25:09;17.57;;;15.87;;
11141;SDS011;5625;50.122;19.864;2023-05-24T07:27:37;16.63;;;15.00;;
11141;SDS011;5625;50.122;19.864;2023-05-24T07:30:10;15.57;;;14.27;;
11141;SDS011;5625;50.122;19.864;2023-05-24T07:32:56;16.33;;;14.63;;
11141;SDS011;5625;50.122;19.864;2023-05-24T07:35:27;15.53;;;14.13;;
11141;SDS011;5625;50.122;19.864;2023-05-24T07:37:56;15.90;;;14.37;;
11141;SDS011;5625;50.122;19.864;2023-05-24T07:40:24;16.30;;;14.70;;
11141;SDS011;5625;50.122;19.864;2023-05-24T07:42:52;19.67;;;17.67;;
11141;SDS011;5625;50.122;19.864;2023-05-24T07:45:21;23.47;;;21.17;;
11141;SDS011;5625;50.122;19.864;2023-05-24T07:47:52;22.77;;;20.47;;
11141;SDS011;5625;50.122;19.864;2023-05-24T07:50:22;22.87;;;20.50;;
11141;SDS011;5625;50.122;19.864;2023-05-24T07:52:50;22.40;;;19.87;;
11141;SDS011;5625;50.122;19.864;2023-05-24T07:55:21;21.20;;;18.90;;
11141;SDS011;5625;50.122;19.864;2023-05-24T07:57:52;19.87;;;17.87;;
11141;SDS011;5625;50.122;19.864;2023-05-24T08:00:23;20.63;;;18.07;;
11141;SDS011;5625;50.122;19.864;2023-05-24T08:02:52;21.50;;;19.30;;
11141;SDS011;5625;50.122;19.864;2023-05-24T08:05:20;20.57;;;18.47;;
11141;SDS011;5625;50.122;19.864;2023-05-24T08:07:48;19.83;;;17.80;;
11141;SDS011;5625;50.122;19.864;2023-05-24T08:10:19;19.40;;;17.43;;
11141;SDS011;5625;50.122;19.864;2023-05-24T08:12:48;19.17;;;17.17;;
11141;SDS011;5625;50.122;19.864;2023-05-24T08:15:16;19.73;;;17.57;;
11141;SDS011;5625;50.122;19.864;2023-05-24T08:17:47;18.73;;;16.43;;
11141;SDS011;5625;50.122;19.864;2023-05-24T08:20:15;19.00;;;17.00;;
11141;SDS011;5625;50.122;19.864;2023-05-24T08:22:46;19.10;;;16.10;;
11141;SDS011;5625;50.122;19.864;2023-05-24T08:25:14;17.03;;;15.23;;
11141;SDS011;5625;50.122;19.864;2023-05-24T08:27:42;17.73;;;15.07;;
11141;SDS011;5625;50.122;19.864;2023-05-24T08:30:11;16.37;;;14.67;;
11141;SDS011;5625;50.122;19.864;2023-05-24T08:32:40;16.40;;;14.83;;
11141;SDS011;5625;50.122;19.864;2023-05-24T08:35:12;15.67;;;14.13;;
11141;SDS011;5625;50.122;19.864;2023-05-24T08:37:43;14.87;;;13.37;;
11141;SDS011;5625;50.122;19.864;2023-05-24T08:40:11;13.20;;;11.90;;
11141;SDS011;5625;50.122;19.864;2023-05-24T08:42:39;12.47;;;11.23;;
11141;SDS011;5625;50.122;19.864;2023-05-24T08:45:09;12.57;;;11.37;;
11141;SDS011;5625;50.122;19.864;2023-05-24T08:47:38;12.10;;;10.80;;
11141;SDS011;5625;50.122;19.864;2023-05-24T08:50:07;11.20;;;9.90;;
11141;SDS011;5625;50.122;19.864;2023-05-24T08:52:41;11.00;;;9.37;;
11141;SDS011;5625;50.122;19.864;2023-05-24T08:55:10;11.00;;;8.80;;
11141;SDS011;5625;50.122;19.864;2023-05-24T08:57:38;9.47;;;8.57;;
11141;SDS011;5625;50.122;19.864;2023-05-24T09:00:07;11.03;;;8.90;;
11141;SDS011;5625;50.122;19.864;2023-05-24T09:02:40;10.20;;;9.10;;
11141;SDS011;5625;50.122;19.864;2023-05-24T09:05:11;10.43;;;9.30;;
11141;SDS011;5625;50.122;19.864;2023-05-24T09:07:42;9.80;;;8.73;;
11141;SDS011;5625;50.122;19.864;2023-05-24T09:10:11;9.07;;;7.67;;
11141;SDS011;5625;50.122;19.864;2023-05-24T09:12:42;7.53;;;6.53;;
11141;SDS011;5625;50.122;19.864;2023-05-24T09:15:11;7.53;;;6.70;;
11141;SDS011;5625;50.122;19.864;2023-05-24T09:17:39;9.67;;;7.20;;
11141;SDS011;5625;50.122;19.864;2023-05-24T09:20:08;9.03;;;7.13;;
11141;SDS011;5625;50.122;19.864;2023-05-24T09:22:39;9.47;;;7.20;;
11141;SDS011;5625;50.122;19.864;2023-05-24T09:25:09;8.00;;;5.90;;
11141;SDS011;5625;50.122;19.864;2023-05-24T09:27:39;7.50;;;5.73;;
11141;SDS011;5625;50.122;19.864;2023-05-24T09:30:08;6.03;;;5.53;;
11141;SDS011;5625;50.122;19.864;2023-05-24T09:32:39;5.67;;;5.17;;
11141;SDS011;5625;50.122;19.864;2023-05-24T09:35:08;5.33;;;4.83;;
11141;SDS011;5625;50.122;19.864;2023-05-24T09:37:36;5.17;;;4.77;;
11141;SDS011;5625;50.122;19.864;2023-05-24T09:40:07;8.70;;;7.80;;
11141;SDS011;5625;50.122;19.864;2023-05-24T09:42:44;12.17;;;10.67;;
11141;SDS011;5625;50.122;19.864;2023-05-24T09:45:12;13.73;;;12.33;;
11141;SDS011;5625;50.122;19.864;2023-05-24T09:47:41;14.97;;;13.30;;
11141;SDS011;5625;50.122;19.864;2023-05-24T09:50:11;16.07;;;13.67;;
11141;SDS011;5625;50.122;19.864;2023-05-24T09:52:41;15.10;;;13.53;;
11141;SDS011;5625;50.122;19.864;2023-05-24T09:55:14;15.17;;;13.57;;
11141;SDS011;5625;50.122;19.864;2023-05-24T09:58:00;13.57;;;12.27;;
11141;SDS011;5625;50.122;19.864;2023-05-24T10:00:31;13.43;;;11.93;;
11141;SDS011;5625;50.122;19.864;2023-05-24T10:03:02;14.87;;;12.73;;
11141;SDS011;5625;50.122;19.864;2023-05-24T10:05:32;16.57;;;14.10;;
11141;SDS011;5625;50.122;19.864;2023-05-24T10:08:01;16.17;;;14.13;;
11141;SDS011;5625;50.122;19.864;2023-05-24T10:10:32;16.60;;;14.60;;
11141;SDS011;5625;50.122;19.864;2023-05-24T10:13:00;15.90;;;14.30;;
11141;SDS011;5625;50.122;19.864;2023-05-24T10:15:29;16.07;;;14.57;;
11141;SDS011;5625;50.122;19.864;2023-05-24T10:18:02;16.67;;;14.90;;
11141;SDS011;5625;50.122;19.864;2023-05-24T10:20:37;17.03;;;15.23;;
11141;SDS011;5625;50.122;19.864;2023-05-24T10:23:08;16.50;;;14.37;;
11141;SDS011;5625;50.122;19.864;2023-05-24T10:25:44;16.90;;;15.20;;
11141;SDS011;5625;50.122;19.864;2023-05-24T10:28:19;18.83;;;15.67;;
11141;SDS011;5625;50.122;19.864;2023-05-24T10:30:51;18.83;;;16.03;;
11141;SDS011;5625;50.122;19.864;2023-05-24T10:33:27;17.87;;;15.93;;
11141;SDS011;5625;50.122;19.864;2023-05-24T10:35:57;19.27;;;16.20;;
11141;SDS011;5625;50.122;19.864;2023-05-24T10:38:26;16.90;;;15.20;;
11141;SDS011;5625;50.122;19.864;2023-05-24T10:40:57;17.97;;;15.93;;
11141;SDS011;5625;50.122;19.864;2023-05-24T10:43:25;17.40;;;15.50;;
11141;SDS011;5625;50.122;19.864;2023-05-24T10:45:53;20.03;;;16.30;;
11141;SDS011;5625;50.122;19.864;2023-05-24T10:48:34;18.03;;;16.03;;
11141;SDS011;5625;50.122;19.864;2023-05-24T10:54:11;18.47;;;15.57;;
11141;SDS011;5625;50.122;19.864;2023-05-24T10:56:44;21.93;;;17.07;;
11141;SDS011;5625;50.122;19.864;2023-05-24T11:02:06;21.37;;;17.10;;
11141;SDS011;5625;50.122;19.864;2023-05-24T11:04:39;21.97;;;17.30;;
11141;SDS011;5625;50.122;19.864;2023-05-24T11:07:09;19.00;;;15.40;;
11141;SDS011;5625;50.122;19.864;2023-05-24T11:09:40;18.90;;;15.80;;
11141;SDS011;5625;50.122;19.864;2023-05-24T11:12:17;21.73;;;16.30;;
11141;SDS011;5625;50.122;19.864;2023-05-24T11:14:46;20.30;;;16.23;;
11141;SDS011;5625;50.122;19.864;2023-05-24T11:17:15;19.93;;;15.70;;
11141;SDS011;5625;50.122;19.864;2023-05-24T11:19:49;18.63;;;15.53;;
11141;SDS011;5625;50.122;19.864;2023-05-24T11:22:21;20.13;;;15.57;;
11141;SDS011;5625;50.122;19.864;2023-05-24T11:24:51;20.43;;;15.90;;
11141;SDS011;5625;50.122;19.864;2023-05-24T11:27:21;19.20;;;16.23;;
11141;SDS011;5625;50.122;19.864;2023-05-24T11:29:50;21.73;;;15.93;;
11141;SDS011;5625;50.122;19.864;2023-05-24T11:32:19;18.10;;;16.20;;
11141;SDS011;5625;50.122;19.864;2023-05-24T11:34:49;20.53;;;16.33;;
11141;SDS011;5625;50.122;19.864;2023-05-24T11:37:17;20.83;;;16.23;;
11141;SDS011;5625;50.122;19.864;2023-05-24T11:40:00;20.57;;;16.80;;
11141;SDS011;5625;50.122;19.864;2023-05-24T11:42:32;21.93;;;17.23;;
11141;SDS011;5625;50.122;19.864;2023-05-24T11:45:03;19.83;;;16.50;;
11141;SDS011;5625;50.122;19.864;2023-05-24T11:47:34;21.43;;;16.93;;
11141;SDS011;5625;50.122;19.864;2023-05-24T11:50:02;22.20;;;16.87;;
11141;SDS011;5625;50.122;19.864;2023-05-24T11:52:32;23.47;;;17.73;;
11141;SDS011;5625;50.122;19.864;2023-05-24T11:55:05;18.93;;;16.70;;
11141;SDS011;5625;50.122;19.864;2023-05-24T11:57:36;22.43;;;16.87;;
11141;SDS011;5625;50.122;19.864;2023-05-24T12:00:05;18.30;;;16.00;;
11141;SDS011;5625;50.122;19.864;2023-05-24T12:02:36;17.67;;;15.73;;
11141;SDS011;5625;50.122;19.864;2023-05-24T12:05:05;17.77;;;15.97;;
11141;SDS011;5625;50.122;19.864;2023-05-24T12:07:36;17.90;;;16.07;;
11141;SDS011;5625;50.122;19.864;2023-05-24T12:10:06;17.50;;;15.67;;
11141;SDS011;5625;50.122;19.864;2023-05-24T12:12:40;17.57;;;15.77;;
11141;SDS011;5625;50.122;19.864;2023-05-24T12:15:11;17.50;;;15.50;;
11141;SDS011;5625;50.122;19.864;2023-05-24T12:17:40;18.07;;;15.00;;
11141;SDS011;5625;50.122;19.864;2023-05-24T12:20:08;21.67;;;15.07;;
11141;SDS011;5625;50.122;19.864;2023-05-24T12:22:38;16.57;;;14.67;;
11141;SDS011;5625;50.122;19.864;2023-05-24T12:25:15;16.90;;;14.30;;
11141;SDS011;5625;50.122;19.864;2023-05-24T12:27:51;15.07;;;13.13;;
11141;SDS011;5625;50.122;19.864;2023-05-24T12:30:21;15.03;;;13.53;;
11141;SDS011;5625;50.122;19.864;2023-05-24T12:32:52;16.03;;;12.70;;
11141;SDS011;5625;50.122;19.864;2023-05-24T12:35:21;14.43;;;12.93;;
11141;SDS011;5625;50.122;19.864;2023-05-24T12:37:56;15.20;;;13.50;;
11141;SDS011;5625;50.122;19.864;2023-05-24T12:40:31;15.57;;;13.83;;
11141;SDS011;5625;50.122;19.864;2023-05-24T12:43:01;16.47;;;13.93;;
11141;SDS011;5625;50.122;19.864;2023-05-24T12:45:30;16.57;;;14.20;;
11141;SDS011;5625;50.122;19.864;2023-05-24T12:47:58;16.77;;;14.80;;
11141;SDS011;5625;50.122;19.864;2023-05-24T12:50:28;17.53;;;15.40;;
11141;SDS011;5625;50.122;19.864;2023-05-24T12:52:56;16.57;;;14.80;;
11141;SDS011;5625;50.122;19.864;2023-05-24T12:55:27;17.60;;;15.47;;
11141;SDS011;5625;50.122;19.864;2023-05-24T12:57:58;16.80;;;14.70;;
11141;SDS011;5625;50.122;19.864;2023-05-24T13:00:33;15.13;;;13.60;;
11141;SDS011;5625;50.122;19.864;2023-05-24T13:03:03;17.27;;;14.87;;
11141;SDS011;5625;50.122;19.864;2023-05-24T13:05:32;15.40;;;13.90;;
11141;SDS011;5625;50.122;19.864;2023-05-24T13:08:00;15.27;;;13.67;;
11141;SDS011;5625;50.122;19.864;2023-05-24T13:10:29;15.63;;;14.03;;
11141;SDS011;5625;50.122;19.864;2023-05-24T13:12:58;15.57;;;13.97;;
11141;SDS011;5625;50.122;19.864;2023-05-24T13:15:28;14.87;;;13.33;;
11141;SDS011;5625;50.122;19.864;2023-05-24T13:17:58;14.63;;;13.03;;
11141;SDS011;5625;50.122;19.864;2023-05-24T13:20:28;15.07;;;13.57;;
11141;SDS011;5625;50.122;19.864;2023-05-24T13:22:57;15.43;;;13.63;;
11141;SDS011;5625;50.122;19.864;2023-05-24T13:25:27;15.47;;;13.97;;
11141;SDS011;5625;50.122;19.864;2023-05-24T13:27:58;16.23;;;13.03;;
11141;SDS011;5625;50.122;19.864;2023-05-24T13:30:28;14.53;;;12.83;;
11141;SDS011;5625;50.122;19.864;2023-05-24T13:32:56;13.93;;;12.63;;
11141;SDS011;5625;50.122;19.864;2023-05-24T13:35:25;16.10;;;12.67;;
11141;SDS011;5625;50.122;19.864;2023-05-24T13:37:53;12.93;;;11.63;;
11141;SDS011;5625;50.122;19.864;2023-05-24T13:40:23;13.90;;;12.60;;
11141;SDS011;5625;50.122;19.864;2023-05-24T13:42:51;12.67;;;11.57;;
11141;SDS011;5625;50.122;19.864;2023-05-24T13:45:19;13.43;;;12.13;;
11141;SDS011;5625;50.122;19.864;2023-05-24T13:47:50;13.50;;;12.20;;
11141;SDS011;5625;50.122;19.864;2023-05-24T13:50:19;12.53;;;11.23;;
11141;SDS011;5625;50.122;19.864;2023-05-24T13:52:48;13.07;;;11.73;;
11141;SDS011;5625;50.122;19.864;2023-05-24T13:55:16;13.47;;;11.77;;
11141;SDS011;5625;50.122;19.864;2023-05-24T13:57:47;14.23;;;11.30;;
11141;SDS011;5625;50.122;19.864;2023-05-24T14:00:17;11.50;;;10.17;;
11141;SDS011;5625;50.122;19.864;2023-05-24T14:02:50;11.80;;;10.73;;
11141;SDS011;5625;50.122;19.864;2023-05-24T14:05:20;11.47;;;10.20;;
11141;SDS011;5625;50.122;19.864;2023-05-24T14:07:53;11.63;;;10.63;;
11141;SDS011;5625;50.122;19.864;2023-05-24T14:10:22;11.20;;;10.10;;
11141;SDS011;5625;50.122;19.864;2023-05-24T14:12:51;12.97;;;10.47;;
11141;SDS011;5625;50.122;19.864;2023-05-24T14:15:39;12.33;;;10.87;;
11141;SDS011;5625;50.122;19.864;2023-05-24T14:18:08;11.77;;;10.57;;
11141;SDS011;5625;50.122;19.864;2023-05-24T14:20:37;11.10;;;9.90;;
11141;SDS011;5625;50.122;19.864;2023-05-24T14:23:06;12.03;;;10.83;;
11141;SDS011;5625;50.122;19.864;2023-05-24T14:25:37;11.27;;;10.10;;
11141;SDS011;5625;50.122;19.864;2023-05-24T14:28:06;11.07;;;10.03;;
11141;SDS011;5625;50.122;19.864;2023-05-24T14:30:34;11.83;;;10.07;;
11141;SDS011;5625;50.122;19.864;2023-05-24T14:33:03;11.27;;;10.20;;
11141;SDS011;5625;50.122;19.864;2023-05-24T14:35:35;10.80;;;9.53;;
11141;SDS011;5625;50.122;19.864;2023-05-24T14:38:05;10.87;;;9.83;;
11141;SDS011;5625;50.122;19.864;2023-05-24T14:40:34;10.77;;;9.77;;
11141;SDS011;5625;50.122;19.864;2023-05-24T14:43:07;11.10;;;10.10;;
11141;SDS011;5625;50.122;19.864;2023-05-24T14:45:36;12.03;;;10.60;;
11141;SDS011;5625;50.122;19.864;2023-05-24T14:48:09;12.30;;;11.10;;